sensor_id;sensor_type;location;lat;lon;timestamp;pressure;altitude;pressure_sealevel;temperature;humidity
54924;BME280;40825;52.270;20.984;2022-08-18T00:00:11;100271.35;;;24.03;68.10
54924;BME280;40825;52.270;20.984;2022-08-18T00:00:58;100271.16;;;24.00;68.01
54924;BME280;40825;52.270;20.984;2022-08-18T00:01:24;100269.91;;;23.98;68.17
54924;BME280;40825;52.270;20.984;2022-08-18T00:02:15;100273.67;;;23.98;68.32
54924;BME280;40825;52.270;20.984;2022-08-18T00:02:40;100269.92;;;23.96;68.32
54924;BME280;40825;52.270;20.984;2022-08-18T00:03:05;100271.96;;;23.95;68.36
54924;BME280;40825;52.270;20.984;2022-08-18T00:03:28;100271.71;;;23.96;68.42
54924;BME280;40825;52.270;20.984;2022-08-18T00:03:54;100274.45;;;23.97;68.46
54924;BME280;40825;52.270;20.984;2022-08-18T00:04:16;100274.59;;;23.99;68.38
54924;BME280;40825;52.270;20.984;2022-08-18T00:04:58;100274.16;;;23.97;68.36
54924;BME280;40825;52.270;20.984;2022-08-18T00:05:23;100274.35;;;23.96;68.38
54924;BME280;40825;52.270;20.984;2022-08-18T00:05:45;100274.21;;;23.97;68.54
54924;BME280;40825;52.270;20.984;2022-08-18T00:06:07;100274.09;;;23.98;68.46
54924;BME280;40825;52.270;20.984;2022-08-18T00:06:28;100272.55;;;23.99;68.48
54924;BME280;40825;52.270;20.984;2022-08-18T00:06:53;100269.77;;;24.02;68.52
54924;BME280;40825;52.270;20.984;2022-08-18T00:07:28;100273.42;;;24.02;68.47
54924;BME280;40825;52.270;20.984;2022-08-18T00:07:56;100271.19;;;24.02;68.37
54924;BME280;40825;52.270;20.984;2022-08-18T00:08:29;100270.83;;;24.00;68.46
54924;BME280;40825;52.270;20.984;2022-08-18T00:08:51;100272.08;;;24.00;68.60
54924;BME280;40825;52.270;20.984;2022-08-18T00:09:12;100267.83;;;24.00;68.50
54924;BME280;40825;52.270;20.984;2022-08-18T00:09:36;100269.28;;;24.01;68.54
54924;BME280;40825;52.270;20.984;2022-08-18T00:10:02;100268.34;;;24.02;68.53
54924;BME280;40825;52.270;20.984;2022-08-18T00:10:25;100269.92;;;24.03;68.47
54924;BME280;40825;52.270;20.984;2022-08-18T00:10:49;100270.31;;;24.03;68.60
54924;BME280;40825;52.270;20.984;2022-08-18T00:11:20;100272.33;;;24.01;68.42
54924;BME280;40825;52.270;20.984;2022-08-18T00:11:43;100270.17;;;24.00;68.49
54924;BME280;40825;52.270;20.984;2022-08-18T00:12:13;100268.41;;;24.01;68.46
54924;BME280;40825;52.270;20.984;2022-08-18T00:12:39;100272.45;;;24.01;68.45
54924;BME280;40825;52.270;20.984;2022-08-18T00:13:03;100270.66;;;24.01;68.53
54924;BME280;40825;52.270;20.984;2022-08-18T00:13:25;100272.73;;;24.00;68.55
54924;BME280;40825;52.270;20.984;2022-08-18T00:13:47;100272.08;;;24.01;68.42
54924;BME280;40825;52.270;20.984;2022-08-18T00:14:13;100272.63;;;24.01;68.48
54924;BME280;40825;52.270;20.984;2022-08-18T00:14:35;100273.65;;;24.00;68.47
54924;BME280;40825;52.270;20.984;2022-08-18T00:14:57;100270.94;;;24.00;68.52
54924;BME280;40825;52.270;20.984;2022-08-18T00:15:24;100271.92;;;24.00;68.45
54924;BME280;40825;52.270;20.984;2022-08-18T00:15:49;100272.73;;;23.99;68.50
54924;BME280;40825;52.270;20.984;2022-08-18T00:16:31;100271.10;;;23.99;68.57
54924;BME280;40825;52.270;20.984;2022-08-18T00:16:53;100273.63;;;23.96;68.50
54924;BME280;40825;52.270;20.984;2022-08-18T00:17:16;100271.02;;;23.95;68.67
54924;BME280;40825;52.270;20.984;2022-08-18T00:17:59;100272.60;;;23.96;68.72
54924;BME280;40825;52.270;20.984;2022-08-18T00:18:24;100276.21;;;23.94;68.60
54924;BME280;40825;52.270;20.984;2022-08-18T00:18:46;100276.44;;;23.93;68.79
54924;BME280;40825;52.270;20.984;2022-08-18T00:19:11;100275.08;;;23.94;68.74
54924;BME280;40825;52.270;20.984;2022-08-18T00:19:33;100277.95;;;23.96;68.81
54924;BME280;40825;52.270;20.984;2022-08-18T00:19:58;100277.44;;;23.97;68.76
54924;BME280;40825;52.270;20.984;2022-08-18T00:20:22;100279.77;;;23.99;68.81
54924;BME280;40825;52.270;20.984;2022-08-18T00:20:44;100281.45;;;24.00;68.87
54924;BME280;40825;52.270;20.984;2022-08-18T00:21:06;100280.08;;;24.01;68.84
54924;BME280;40825;52.270;20.984;2022-08-18T00:21:31;100281.66;;;24.01;68.72
54924;BME280;40825;52.270;20.984;2022-08-18T00:21:53;100284.94;;;24.01;68.79
54924;BME280;40825;52.270;20.984;2022-08-18T00:22:18;100285.92;;;24.01;68.77
54924;BME280;40825;52.270;20.984;2022-08-18T00:22:41;100284.63;;;24.00;68.72
54924;BME280;40825;52.270;20.984;2022-08-18T00:23:03;100284.63;;;23.99;68.81
54924;BME280;40825;52.270;20.984;2022-08-18T00:23:35;100287.29;;;23.98;68.78
54924;BME280;40825;52.270;20.984;2022-08-18T00:23:59;100290.20;;;23.97;68.82
54924;BME280;40825;52.270;20.984;2022-08-18T00:24:21;100293.59;;;23.97;68.79
54924;BME280;40825;52.270;20.984;2022-08-18T00:24:44;100289.33;;;23.97;68.76
54924;BME280;40825;52.270;20.984;2022-08-18T00:25:08;100290.85;;;23.98;68.78
54924;BME280;40825;52.270;20.984;2022-08-18T00:25:30;100287.43;;;23.96;68.84
54924;BME280;40825;52.270;20.984;2022-08-18T00:25:54;100290.08;;;23.98;68.76
54924;BME280;40825;52.270;20.984;2022-08-18T00:26:28;100291.77;;;23.99;68.68
54924;BME280;40825;52.270;20.984;2022-08-18T00:27:08;100291.27;;;23.94;68.63
54924;BME280;40825;52.270;20.984;2022-08-18T00:28:07;100291.99;;;23.89;68.74
54924;BME280;40825;52.270;20.984;2022-08-18T00:28:29;100294.23;;;23.81;68.93
54924;BME280;40825;52.270;20.984;2022-08-18T00:29:48;100298.34;;;23.80;68.99
54924;BME280;40825;52.270;20.984;2022-08-18T00:30:21;100298.92;;;23.73;68.92
54924;BME280;40825;52.270;20.984;2022-08-18T00:31:46;100302.48;;;23.64;69.15
54924;BME280;40825;52.270;20.984;2022-08-18T00:32:16;100311.08;;;23.63;69.29
54924;BME280;40825;52.270;20.984;2022-08-18T00:33:21;100312.08;;;23.63;69.18
54924;BME280;40825;52.270;20.984;2022-08-18T00:33:44;100311.92;;;23.60;69.32
54924;BME280;40825;52.270;20.984;2022-08-18T00:34:06;100311.59;;;23.61;69.53
54924;BME280;40825;52.270;20.984;2022-08-18T00:34:28;100314.17;;;23.64;69.67
54924;BME280;40825;52.270;20.984;2022-08-18T00:34:53;100317.39;;;23.68;69.72
54924;BME280;40825;52.270;20.984;2022-08-18T00:35:22;100315.78;;;23.71;69.53
54924;BME280;40825;52.270;20.984;2022-08-18T00:35:55;100315.79;;;23.71;69.54
54924;BME280;40825;52.270;20.984;2022-08-18T00:36:25;100320.25;;;23.71;69.46
54924;BME280;40825;52.270;20.984;2022-08-18T00:36:47;100316.33;;;23.69;69.48
54924;BME280;40825;52.270;20.984;2022-08-18T00:37:10;100318.23;;;23.70;69.66
54924;BME280;40825;52.270;20.984;2022-08-18T00:37:41;100317.09;;;23.71;69.72
54924;BME280;40825;52.270;20.984;2022-08-18T00:38:26;100312.68;;;23.71;69.60
54924;BME280;40825;52.270;20.984;2022-08-18T00:38:48;100316.78;;;23.68;69.57
54924;BME280;40825;52.270;20.984;2022-08-18T00:39:12;100317.99;;;23.67;69.62
54924;BME280;40825;52.270;20.984;2022-08-18T00:39:34;100316.80;;;23.67;69.78
54924;BME280;40825;52.270;20.984;2022-08-18T00:39:55;100317.26;;;23.69;69.71
54924;BME280;40825;52.270;20.984;2022-08-18T00:40:30;100317.75;;;23.70;69.60
54924;BME280;40825;52.270;20.984;2022-08-18T00:40:54;100318.09;;;23.69;69.74
54924;BME280;40825;52.270;20.984;2022-08-18T00:41:37;100322.23;;;23.68;69.55
54924;BME280;40825;52.270;20.984;2022-08-18T00:42:24;100322.52;;;23.66;69.53
54924;BME280;40825;52.270;20.984;2022-08-18T00:43:11;100324.90;;;23.59;69.47
54924;BME280;40825;52.270;20.984;2022-08-18T00:43:54;100325.05;;;23.51;69.51
54924;BME280;40825;52.270;20.984;2022-08-18T00:44:26;100327.82;;;23.50;69.63
54924;BME280;40825;52.270;20.984;2022-08-18T00:44:48;100330.06;;;23.51;69.66
54924;BME280;40825;52.270;20.984;2022-08-18T00:45:27;100328.19;;;23.53;69.64
54924;BME280;40825;52.270;20.984;2022-08-18T00:46:21;100332.23;;;23.54;69.55
54924;BME280;40825;52.270;20.984;2022-08-18T00:48:08;100328.30;;;23.41;69.61
54924;BME280;40825;52.270;20.984;2022-08-18T00:48:34;100327.44;;;23.39;69.62
54924;BME280;40825;52.270;20.984;2022-08-18T00:48:56;100328.25;;;23.40;69.63
54924;BME280;40825;52.270;20.984;2022-08-18T00:49:21;100326.84;;;23.41;69.63
54924;BME280;40825;52.270;20.984;2022-08-18T00:50:08;100326.34;;;23.41;69.53
54924;BME280;40825;52.270;20.984;2022-08-18T00:50:33;100326.84;;;23.37;69.51
54924;BME280;40825;52.270;20.984;2022-08-18T00:51:07;100323.44;;;23.34;69.58
54924;BME280;40825;52.270;20.984;2022-08-18T00:51:42;100325.83;;;23.34;69.74
54924;BME280;40825;52.270;20.984;2022-08-18T00:52:11;100324.15;;;23.34;69.72
54924;BME280;40825;52.270;20.984;2022-08-18T00:52:35;100325.99;;;23.34;69.69
54924;BME280;40825;52.270;20.984;2022-08-18T00:53:28;100328.56;;;23.34;69.94
54924;BME280;40825;52.270;20.984;2022-08-18T00:54:27;100330.75;;;23.31;69.97
54924;BME280;40825;52.270;20.984;2022-08-18T00:55:23;100330.98;;;23.19;69.87
54924;BME280;40825;52.270;20.984;2022-08-18T00:55:46;100337.04;;;23.18;70.19
54924;BME280;40825;52.270;20.984;2022-08-18T00:56:25;100333.65;;;23.19;70.43
54924;BME280;40825;52.270;20.984;2022-08-18T00:56:49;100330.09;;;23.22;70.29
54924;BME280;40825;52.270;20.984;2022-08-18T00:57:13;100332.11;;;23.23;70.46
54924;BME280;40825;52.270;20.984;2022-08-18T00:57:37;100332.27;;;23.26;70.53
54924;BME280;40825;52.270;20.984;2022-08-18T00:58:38;100329.70;;;23.27;70.36
54924;BME280;40825;52.270;20.984;2022-08-18T00:59:19;100332.49;;;23.23;70.22
54924;BME280;40825;52.270;20.984;2022-08-18T01:00:05;100331.59;;;23.19;70.37
54924;BME280;40825;52.270;20.984;2022-08-18T01:00:34;100331.05;;;23.15;70.35
54924;BME280;40825;52.270;20.984;2022-08-18T01:00:56;100331.60;;;23.15;70.60
54924;BME280;40825;52.270;20.984;2022-08-18T01:01:22;100330.71;;;23.18;70.58
54924;BME280;40825;52.270;20.984;2022-08-18T01:01:48;100329.50;;;23.20;70.61
54924;BME280;40825;52.270;20.984;2022-08-18T01:02:36;100328.40;;;23.23;70.53
54924;BME280;40825;52.270;20.984;2022-08-18T01:03:49;100327.23;;;23.19;70.42
54924;BME280;40825;52.270;20.984;2022-08-18T01:04:18;100325.91;;;23.17;70.58
54924;BME280;40825;52.270;20.984;2022-08-18T01:04:51;100328.37;;;23.18;70.56
54924;BME280;40825;52.270;20.984;2022-08-18T01:05:29;100328.54;;;23.19;70.61
54924;BME280;40825;52.270;20.984;2022-08-18T01:06:00;100329.19;;;23.16;70.57
54924;BME280;40825;52.270;20.984;2022-08-18T01:07:44;100330.48;;;23.06;70.58
54924;BME280;40825;52.270;20.984;2022-08-18T01:08:10;100331.42;;;23.01;70.68
54924;BME280;40825;52.270;20.984;2022-08-18T01:08:34;100329.02;;;23.00;70.74
54924;BME280;40825;52.270;20.984;2022-08-18T01:09:10;100333.81;;;23.00;70.93
54924;BME280;40825;52.270;20.984;2022-08-18T01:09:35;100331.15;;;23.01;71.07
54924;BME280;40825;52.270;20.984;2022-08-18T01:10:00;100334.89;;;23.03;71.00
54924;BME280;40825;52.270;20.984;2022-08-18T01:10:25;100336.20;;;23.04;71.04
54924;BME280;40825;52.270;20.984;2022-08-18T01:10:49;100334.45;;;23.04;71.22
54924;BME280;40825;52.270;20.984;2022-08-18T01:11:20;100336.63;;;23.07;71.15
54924;BME280;40825;52.270;20.984;2022-08-18T01:11:45;100336.62;;;23.08;71.02
54924;BME280;40825;52.270;20.984;2022-08-18T01:12:07;100337.16;;;23.07;71.08
54924;BME280;40825;52.270;20.984;2022-08-18T01:12:33;100341.13;;;23.10;71.03
54924;BME280;40825;52.270;20.984;2022-08-18T01:12:58;100341.14;;;23.11;71.03
54924;BME280;40825;52.270;20.984;2022-08-18T01:13:49;100343.15;;;23.11;71.08
54924;BME280;40825;52.270;20.984;2022-08-18T01:14:23;100343.53;;;23.07;70.98
54924;BME280;40825;52.270;20.984;2022-08-18T01:15:09;100346.73;;;22.98;71.12
54924;BME280;40825;52.270;20.984;2022-08-18T01:15:37;100350.42;;;22.97;71.26
54924;BME280;40825;52.270;20.984;2022-08-18T01:16:00;100350.32;;;22.97;71.32
54924;BME280;40825;52.270;20.984;2022-08-18T01:16:46;100350.48;;;22.96;71.26
54924;BME280;40825;52.270;20.984;2022-08-18T01:18:48;100352.69;;;22.83;71.23
54924;BME280;40825;52.270;20.984;2022-08-18T01:19:49;100352.54;;;22.80;71.53
54924;BME280;40825;52.270;20.984;2022-08-18T01:21:52;100356.84;;;22.71;71.56
54924;BME280;40825;52.270;20.984;2022-08-18T01:23:27;100359.34;;;22.69;71.67
54924;BME280;40825;52.270;20.984;2022-08-18T01:23:55;100358.14;;;22.68;71.81
54924;BME280;40825;52.270;20.984;2022-08-18T01:25:28;100358.86;;;22.66;71.83
54924;BME280;40825;52.270;20.984;2022-08-18T01:26:15;100356.84;;;22.59;71.92
54924;BME280;40825;52.270;20.984;2022-08-18T01:26:40;100359.35;;;22.60;72.22
54924;BME280;40825;52.270;20.984;2022-08-18T01:27:31;100353.26;;;22.63;72.23
54924;BME280;40825;52.270;20.984;2022-08-18T01:27:52;100354.52;;;22.63;72.14
54924;BME280;40825;52.270;20.984;2022-08-18T01:28:20;100353.95;;;22.63;72.24
54924;BME280;40825;52.270;20.984;2022-08-18T01:28:45;100352.61;;;22.64;72.38
54924;BME280;40825;52.270;20.984;2022-08-18T01:29:07;100353.16;;;22.64;72.45
54924;BME280;40825;52.270;20.984;2022-08-18T01:29:34;100353.80;;;22.66;72.39
54924;BME280;40825;52.270;20.984;2022-08-18T01:30:04;100350.64;;;22.66;72.54
54924;BME280;40825;52.270;20.984;2022-08-18T01:30:30;100349.55;;;22.66;72.42
54924;BME280;40825;52.270;20.984;2022-08-18T01:30:54;100353.25;;;22.67;72.64
54924;BME280;40825;52.270;20.984;2022-08-18T01:31:33;100354.23;;;22.69;72.56
54924;BME280;40825;52.270;20.984;2022-08-18T01:31:57;100349.06;;;22.69;72.55
54924;BME280;40825;52.270;20.984;2022-08-18T01:32:22;100351.46;;;22.69;72.63
54924;BME280;40825;52.270;20.984;2022-08-18T01:32:44;100354.00;;;22.71;72.58
54924;BME280;40825;52.270;20.984;2022-08-18T01:33:31;100353.63;;;22.72;72.77
54924;BME280;40825;52.270;20.984;2022-08-18T01:33:53;100355.76;;;22.70;72.46
54924;BME280;40825;52.270;20.984;2022-08-18T01:34:17;100354.23;;;22.70;72.63
54924;BME280;40825;52.270;20.984;2022-08-18T01:34:46;100352.05;;;22.71;72.79
54924;BME280;40825;52.270;20.984;2022-08-18T01:35:11;100354.51;;;22.72;72.71
54924;BME280;40825;52.270;20.984;2022-08-18T01:35:38;100354.83;;;22.74;72.73
54924;BME280;40825;52.270;20.984;2022-08-18T01:36:29;100357.16;;;22.75;72.69
54924;BME280;40825;52.270;20.984;2022-08-18T01:36:51;100361.24;;;22.76;72.74
54924;BME280;40825;52.270;20.984;2022-08-18T01:37:18;100358.35;;;22.78;72.88
54924;BME280;40825;52.270;20.984;2022-08-18T01:37:41;100357.21;;;22.79;72.90
54924;BME280;40825;52.270;20.984;2022-08-18T01:38:02;100354.83;;;22.81;73.05
54924;BME280;40825;52.270;20.984;2022-08-18T01:38:24;100358.23;;;22.83;73.00
54924;BME280;40825;52.270;20.984;2022-08-18T01:38:50;100355.52;;;22.86;73.01
54924;BME280;40825;52.270;20.984;2022-08-18T01:39:12;100354.59;;;22.88;72.85
54924;BME280;40825;52.270;20.984;2022-08-18T01:39:37;100352.95;;;22.89;73.20
54924;BME280;40825;52.270;20.984;2022-08-18T01:40:06;100352.89;;;22.91;73.03
54924;BME280;40825;52.270;20.984;2022-08-18T01:40:29;100351.86;;;22.90;72.74
54924;BME280;40825;52.270;20.984;2022-08-18T01:40:52;100348.37;;;22.91;72.90
54924;BME280;40825;52.270;20.984;2022-08-18T01:41:16;100346.89;;;22.92;72.83
54924;BME280;40825;52.270;20.984;2022-08-18T01:41:39;100346.52;;;22.92;72.79
54924;BME280;40825;52.270;20.984;2022-08-18T01:42:01;100347.77;;;22.93;72.81
54924;BME280;40825;52.270;20.984;2022-08-18T01:42:24;100349.46;;;22.93;72.85
54924;BME280;40825;52.270;20.984;2022-08-18T01:42:46;100347.65;;;22.95;72.97
54924;BME280;40825;52.270;20.984;2022-08-18T01:43:08;100348.02;;;22.97;72.82
54924;BME280;40825;52.270;20.984;2022-08-18T01:43:29;100345.96;;;22.98;72.84
54924;BME280;40825;52.270;20.984;2022-08-18T01:43:51;100348.63;;;23.00;72.87
54924;BME280;40825;52.270;20.984;2022-08-18T01:44:12;100348.67;;;23.00;72.80
54924;BME280;40825;52.270;20.984;2022-08-18T01:44:34;100348.46;;;23.01;72.71
54924;BME280;40825;52.270;20.984;2022-08-18T01:44:56;100350.58;;;23.02;72.79
54924;BME280;40825;52.270;20.984;2022-08-18T01:45:18;100350.25;;;23.03;72.79
54924;BME280;40825;52.270;20.984;2022-08-18T01:45:41;100352.77;;;23.03;72.75
54924;BME280;40825;52.270;20.984;2022-08-18T01:46:04;100355.21;;;23.03;72.73
54924;BME280;40825;52.270;20.984;2022-08-18T01:46:29;100351.17;;;23.02;72.71
54924;BME280;40825;52.270;20.984;2022-08-18T01:46:51;100351.35;;;23.01;72.57
54924;BME280;40825;52.270;20.984;2022-08-18T01:47:14;100354.56;;;23.02;72.69
54924;BME280;40825;52.270;20.984;2022-08-18T01:47:37;100357.66;;;23.02;72.52
54924;BME280;40825;52.270;20.984;2022-08-18T01:48:03;100357.66;;;23.02;72.79
54924;BME280;40825;52.270;20.984;2022-08-18T01:48:26;100357.45;;;23.02;72.83
54924;BME280;40825;52.270;20.984;2022-08-18T01:48:49;100359.67;;;23.03;72.83
54924;BME280;40825;52.270;20.984;2022-08-18T01:49:18;100354.83;;;23.03;72.80
54924;BME280;40825;52.270;20.984;2022-08-18T01:49:43;100360.59;;;23.04;72.81
54924;BME280;40825;52.270;20.984;2022-08-18T01:50:07;100360.44;;;23.03;72.70
54924;BME280;40825;52.270;20.984;2022-08-18T01:50:29;100358.14;;;23.04;72.60
54924;BME280;40825;52.270;20.984;2022-08-18T01:50:54;100361.78;;;23.05;72.79
54924;BME280;40825;52.270;20.984;2022-08-18T01:51:17;100363.04;;;23.06;72.78
54924;BME280;40825;52.270;20.984;2022-08-18T01:51:40;100365.31;;;23.07;72.86
54924;BME280;40825;52.270;20.984;2022-08-18T01:52:03;100361.67;;;23.09;72.89
54924;BME280;40825;52.270;20.984;2022-08-18T01:52:27;100365.81;;;23.10;72.72
54924;BME280;40825;52.270;20.984;2022-08-18T01:52:51;100361.56;;;23.11;72.77
54924;BME280;40825;52.270;20.984;2022-08-18T01:53:13;100362.27;;;23.12;72.63
54924;BME280;40825;52.270;20.984;2022-08-18T01:53:36;100364.71;;;23.12;72.57
54924;BME280;40825;52.270;20.984;2022-08-18T01:53:58;100370.05;;;23.13;72.47
54924;BME280;40825;52.270;20.984;2022-08-18T01:54:20;100365.03;;;23.14;72.45
54924;BME280;40825;52.270;20.984;2022-08-18T01:54:42;100365.41;;;23.14;72.45
54924;BME280;40825;52.270;20.984;2022-08-18T01:55:04;100367.86;;;23.15;72.52
54924;BME280;40825;52.270;20.984;2022-08-18T01:55:28;100366.23;;;23.16;72.45
54924;BME280;40825;52.270;20.984;2022-08-18T01:55:49;100369.82;;;23.16;72.42
54924;BME280;40825;52.270;20.984;2022-08-18T01:56:11;100369.92;;;23.17;72.41
54924;BME280;40825;52.270;20.984;2022-08-18T01:56:39;100367.42;;;23.16;72.34
54924;BME280;40825;52.270;20.984;2022-08-18T01:57:01;100366.13;;;23.15;72.43
54924;BME280;40825;52.270;20.984;2022-08-18T01:57:22;100368.45;;;23.16;72.34
54924;BME280;40825;52.270;20.984;2022-08-18T01:57:44;100366.17;;;23.15;72.24
54924;BME280;40825;52.270;20.984;2022-08-18T01:58:06;100369.13;;;23.15;72.27
54924;BME280;40825;52.270;20.984;2022-08-18T01:58:34;100368.57;;;23.15;72.30
54924;BME280;40825;52.270;20.984;2022-08-18T01:58:55;100368.73;;;23.15;72.35
54924;BME280;40825;52.270;20.984;2022-08-18T01:59:17;100370.58;;;23.15;72.40
54924;BME280;40825;52.270;20.984;2022-08-18T01:59:40;100366.61;;;23.16;72.37
54924;BME280;40825;52.270;20.984;2022-08-18T02:00:04;100368.89;;;23.17;72.34
54924;BME280;40825;52.270;20.984;2022-08-18T02:00:27;100366.34;;;23.17;72.41
54924;BME280;40825;52.270;20.984;2022-08-18T02:00:49;100364.65;;;23.18;72.37
54924;BME280;40825;52.270;20.984;2022-08-18T02:01:10;100365.73;;;23.18;72.31
54924;BME280;40825;52.270;20.984;2022-08-18T02:01:37;100365.46;;;23.19;72.30
54924;BME280;40825;52.270;20.984;2022-08-18T02:01:59;100363.13;;;23.19;72.18
54924;BME280;40825;52.270;20.984;2022-08-18T02:02:26;100362.35;;;23.18;72.24
54924;BME280;40825;52.270;20.984;2022-08-18T02:02:53;100365.46;;;23.17;72.16
54924;BME280;40825;52.270;20.984;2022-08-18T02:03:16;100360.88;;;23.16;72.27
54924;BME280;40825;52.270;20.984;2022-08-18T02:03:48;100357.34;;;23.17;72.36
54924;BME280;40825;52.270;20.984;2022-08-18T02:04:10;100358.37;;;23.17;72.30
54924;BME280;40825;52.270;20.984;2022-08-18T02:04:32;100357.95;;;23.16;72.30
54924;BME280;40825;52.270;20.984;2022-08-18T02:04:58;100356.80;;;23.17;72.33
54924;BME280;40825;52.270;20.984;2022-08-18T02:05:29;100354.30;;;23.18;72.32
54924;BME280;40825;52.270;20.984;2022-08-18T02:05:55;100350.80;;;23.17;72.31
54924;BME280;40825;52.270;20.984;2022-08-18T02:06:19;100348.70;;;23.15;72.37
54924;BME280;40825;52.270;20.984;2022-08-18T02:06:42;100349.11;;;23.16;72.35
54924;BME280;40825;52.270;20.984;2022-08-18T02:07:07;100347.00;;;23.17;72.29
54924;BME280;40825;52.270;20.984;2022-08-18T02:07:29;100345.09;;;23.17;72.25
54924;BME280;40825;52.270;20.984;2022-08-18T02:07:51;100347.27;;;23.17;72.24
54924;BME280;40825;52.270;20.984;2022-08-18T02:08:12;100343.52;;;23.18;72.28
54924;BME280;40825;52.270;20.984;2022-08-18T02:08:36;100347.48;;;23.19;72.24
54924;BME280;40825;52.270;20.984;2022-08-18T02:08:59;100347.32;;;23.19;72.22
54924;BME280;40825;52.270;20.984;2022-08-18T02:09:20;100348.36;;;23.19;72.31
54924;BME280;40825;52.270;20.984;2022-08-18T02:09:43;100347.58;;;23.19;72.27
54924;BME280;40825;52.270;20.984;2022-08-18T02:10:06;100346.77;;;23.20;72.28
54924;BME280;40825;52.270;20.984;2022-08-18T02:10:31;100348.89;;;23.19;72.12
54924;BME280;40825;52.270;20.984;2022-08-18T02:10:52;100348.03;;;23.19;72.22
54924;BME280;40825;52.270;20.984;2022-08-18T02:11:14;100349.23;;;23.20;72.20
54924;BME280;40825;52.270;20.984;2022-08-18T02:11:36;100352.92;;;23.20;72.23
54924;BME280;40825;52.270;20.984;2022-08-18T02:11:57;100352.05;;;23.21;72.24
54924;BME280;40825;52.270;20.984;2022-08-18T02:12:20;100351.27;;;23.21;72.22
54924;BME280;40825;52.270;20.984;2022-08-18T02:12:41;100350.36;;;23.23;72.29
54924;BME280;40825;52.270;20.984;2022-08-18T02:13:04;100349.92;;;23.23;72.17
54924;BME280;40825;52.270;20.984;2022-08-18T02:13:26;100348.55;;;23.23;72.21
54924;BME280;40825;52.270;20.984;2022-08-18T02:13:47;100352.08;;;23.24;72.18
54924;BME280;40825;52.270;20.984;2022-08-18T02:14:12;100351.66;;;23.24;72.20
54924;BME280;40825;52.270;20.984;2022-08-18T02:14:34;100352.30;;;23.24;72.14
54924;BME280;40825;52.270;20.984;2022-08-18T02:14:56;100355.63;;;23.23;72.17
54924;BME280;40825;52.270;20.984;2022-08-18T02:15:18;100351.71;;;23.23;72.08
54924;BME280;40825;52.270;20.984;2022-08-18T02:15:39;100353.63;;;23.24;72.09
54924;BME280;40825;52.270;20.984;2022-08-18T02:16:03;100353.17;;;23.24;72.06
54924;BME280;40825;52.270;20.984;2022-08-18T02:16:25;100351.17;;;23.24;72.03
54924;BME280;40825;52.270;20.984;2022-08-18T02:16:47;100354.27;;;23.24;71.99
54924;BME280;40825;52.270;20.984;2022-08-18T02:17:10;100357.65;;;23.23;71.94
54924;BME280;40825;52.270;20.984;2022-08-18T02:17:38;100355.91;;;23.22;71.95
54924;BME280;40825;52.270;20.984;2022-08-18T02:18:00;100353.54;;;23.19;71.85
54924;BME280;40825;52.270;20.984;2022-08-18T02:18:25;100356.20;;;23.16;71.87
54924;BME280;40825;52.270;20.984;2022-08-18T02:18:47;100357.36;;;23.14;71.89
54924;BME280;40825;52.270;20.984;2022-08-18T02:19:09;100362.21;;;23.12;72.05
54924;BME280;40825;52.270;20.984;2022-08-18T02:19:35;100357.20;;;23.10;72.00
54924;BME280;40825;52.270;20.984;2022-08-18T02:19:58;100359.70;;;23.07;71.95
54924;BME280;40825;52.270;20.984;2022-08-18T02:20:20;100357.00;;;23.05;72.09
54924;BME280;40825;52.270;20.984;2022-08-18T02:20:42;100359.61;;;23.05;72.10
54924;BME280;40825;52.270;20.984;2022-08-18T02:21:15;100356.73;;;23.05;72.20
54924;BME280;40825;52.270;20.984;2022-08-18T02:21:37;100361.30;;;23.04;72.01
54924;BME280;40825;52.270;20.984;2022-08-18T02:21:59;100359.35;;;23.02;72.20
54924;BME280;40825;52.270;20.984;2022-08-18T02:22:21;100358.04;;;23.03;72.19
54924;BME280;40825;52.270;20.984;2022-08-18T02:22:43;100363.80;;;23.03;72.10
54924;BME280;40825;52.270;20.984;2022-08-18T02:23:05;100360.92;;;23.03;72.13
54924;BME280;40825;52.270;20.984;2022-08-18T02:23:27;100363.55;;;23.02;72.14
54924;BME280;40825;52.270;20.984;2022-08-18T02:23:49;100364.08;;;23.02;72.13
54924;BME280;40825;52.270;20.984;2022-08-18T02:24:10;100363.98;;;23.02;72.12
54924;BME280;40825;52.270;20.984;2022-08-18T02:24:32;100366.27;;;23.02;72.22
54924;BME280;40825;52.270;20.984;2022-08-18T02:24:56;100364.96;;;23.01;72.17
54924;BME280;40825;52.270;20.984;2022-08-18T02:25:18;100366.77;;;23.02;72.14
54924;BME280;40825;52.270;20.984;2022-08-18T02:25:43;100368.23;;;23.02;72.10
54924;BME280;40825;52.270;20.984;2022-08-18T02:26:06;100362.61;;;23.00;72.09
54924;BME280;40825;52.270;20.984;2022-08-18T02:26:28;100368.27;;;22.99;72.17
54924;BME280;40825;52.270;20.984;2022-08-18T02:26:50;100366.82;;;22.99;72.15
54924;BME280;40825;52.270;20.984;2022-08-18T02:27:14;100368.65;;;23.00;72.12
54924;BME280;40825;52.270;20.984;2022-08-18T02:27:36;100365.28;;;23.00;72.14
54924;BME280;40825;52.270;20.984;2022-08-18T02:27:57;100366.31;;;23.00;72.16
54924;BME280;40825;52.270;20.984;2022-08-18T02:28:19;100368.13;;;23.00;72.12
54924;BME280;40825;52.270;20.984;2022-08-18T02:28:41;100368.66;;;23.01;72.15
54924;BME280;40825;52.270;20.984;2022-08-18T02:29:03;100363.98;;;23.02;72.15
54924;BME280;40825;52.270;20.984;2022-08-18T02:29:25;100367.02;;;23.02;72.22
54924;BME280;40825;52.270;20.984;2022-08-18T02:29:47;100365.71;;;23.03;72.10